createdAt,value
2019-04-11T00:00:37.970Z,29.42
2019-04-11T00:03:06.435Z,30.05
2019-04-11T00:05:35.104Z,30.32
2019-04-11T00:08:03.851Z,28.40
2019-04-11T00:10:33.303Z,27.90
2019-04-11T00:13:14.283Z,27.98
2019-04-11T00:15:32.816Z,28.30
2019-04-11T00:18:02.720Z,27.17
2019-04-11T00:20:31.886Z,27.25
2019-04-11T00:23:01.711Z,27.95
2019-04-11T00:25:31.603Z,26.48
2019-04-11T00:28:01.449Z,26.97
2019-04-11T00:30:30.336Z,27.48
2019-04-11T00:33:00.091Z,26.33
2019-04-11T00:35:28.703Z,26.48
2019-04-11T00:37:57.200Z,27.52
2019-04-11T00:40:26.877Z,27.35
2019-04-11T00:42:55.874Z,27.70
2019-04-11T00:45:24.466Z,27.07
2019-04-11T00:47:53.266Z,26.20
2019-04-11T00:50:21.764Z,27.15
2019-04-11T00:52:50.213Z,27.13
2019-04-11T00:55:19.622Z,26.65
2019-04-11T00:57:48.188Z,27.73
2019-04-11T01:00:17.053Z,25.75
2019-04-11T01:02:45.568Z,26.57
2019-04-11T01:05:15.072Z,27.70
2019-04-11T01:07:43.935Z,26.40
2019-04-11T01:10:12.477Z,25.30
2019-04-11T01:12:41.012Z,25.68
2019-04-11T01:15:13.352Z,26.02
2019-04-11T01:17:42.384Z,26.33
2019-04-11T01:20:11.296Z,25.85
2019-04-11T01:22:40.547Z,26.25
2019-04-11T01:25:10.366Z,26.23
2019-04-11T01:27:39.973Z,26.77
2019-04-11T01:30:11.950Z,25.68
2019-04-11T01:32:40.569Z,25.88
2019-04-11T01:35:09.107Z,24.87
2019-04-11T01:37:39.745Z,25.10
2019-04-11T01:40:09.716Z,24.47
2019-04-11T01:42:39.700Z,25.02
2019-04-11T01:45:09.576Z,24.63
2019-04-11T01:47:39.762Z,25.08
2019-04-11T01:50:08.649Z,23.62
2019-04-11T01:52:38.287Z,23.15
2019-04-11T01:55:08.248Z,23.67
2019-04-11T01:57:38.124Z,23.77
2019-04-11T02:00:08.230Z,23.47
2019-04-11T02:02:46.506Z,23.42
2019-04-11T02:05:29.350Z,22.75
2019-04-11T02:07:58.722Z,22.00
2019-04-11T02:10:28.712Z,21.95
2019-04-11T02:12:57.684Z,22.13
2019-04-11T02:15:28.733Z,21.57
2019-04-11T02:17:57.290Z,21.70
2019-04-11T02:20:27.147Z,22.40
2019-04-11T02:22:57.466Z,22.27
2019-04-11T02:25:30.560Z,23.35
2019-04-11T02:28:01.190Z,22.37
2019-04-11T02:30:30.873Z,22.02
2019-04-11T02:33:00.350Z,21.68
2019-04-11T02:35:30.903Z,21.90
2019-04-11T02:37:59.861Z,21.12
2019-04-11T02:40:30.004Z,21.62
2019-04-11T02:43:00.911Z,22.22
2019-04-11T02:45:43.282Z,21.75
2019-04-11T02:48:01.584Z,20.55
2019-04-11T02:50:32.027Z,21.05
2019-04-11T02:53:02.453Z,20.10
2019-04-11T02:55:31.719Z,20.82
2019-04-11T02:58:01.824Z,20.95
2019-04-11T03:00:32.726Z,20.57
2019-04-11T03:03:03.409Z,20.08
2019-04-11T03:05:34.483Z,20.25
2019-04-11T03:08:06.806Z,19.82
2019-04-11T03:10:33.618Z,18.23
2019-04-11T03:13:02.999Z,19.00
2019-04-11T03:15:43.055Z,18.85
2019-04-11T03:18:06.624Z,18.35
2019-04-11T03:20:40.734Z,19.23
2019-04-11T03:23:07.604Z,18.70
2019-04-11T03:25:36.360Z,18.05
2019-04-11T03:28:09.611Z,18.52
2019-04-11T03:30:54.025Z,18.45
2019-04-11T03:36:36.974Z,18.02
2019-04-11T03:38:31.369Z,18.20
2019-04-11T03:40:57.922Z,18.77
2019-04-11T03:43:21.143Z,18.75
2019-04-11T03:46:01.889Z,17.65
2019-04-11T03:48:27.302Z,18.17
2019-04-11T03:50:42.475Z,18.12
2019-04-11T03:53:11.709Z,17.10
2019-04-11T03:55:41.246Z,17.80
2019-04-11T03:58:09.830Z,17.82
2019-04-11T04:00:43.843Z,16.65
2019-04-11T04:03:11.397Z,17.35
2019-04-11T04:05:41.985Z,17.90
2019-04-11T04:08:13.004Z,18.42
2019-04-11T04:10:43.701Z,17.40
2019-04-11T04:13:16.966Z,17.82
2019-04-11T04:16:02.720Z,17.23
2019-04-11T04:18:29.732Z,17.10
2019-04-11T04:23:31.461Z,17.67
2019-04-11T04:26:03.214Z,17.60
2019-04-11T04:28:33.698Z,17.42
2019-04-11T04:31:04.432Z,18.12
2019-04-11T04:33:35.426Z,16.95
2019-04-11T04:36:06.487Z,17.45
2019-04-11T04:38:35.452Z,16.77
2019-04-11T04:41:17.564Z,16.67
2019-04-11T04:43:38.779Z,17.00
2019-04-11T04:46:25.063Z,17.32
2019-04-11T04:48:38.085Z,17.57
2019-04-11T04:51:10.852Z,17.55
2019-04-11T04:53:39.032Z,17.12
2019-04-11T04:56:09.033Z,17.48
2019-04-11T04:58:38.007Z,17.25
2019-04-11T05:01:07.111Z,18.07
2019-04-11T05:03:35.959Z,18.07
2019-04-11T05:06:04.580Z,18.52
2019-04-11T05:08:34.592Z,17.20
2019-04-11T05:11:04.517Z,18.02
2019-04-11T05:13:34.456Z,17.92
2019-04-11T05:16:13.081Z,18.77
2019-04-11T05:18:34.278Z,18.52
2019-04-11T05:21:03.371Z,19.15
2019-04-11T05:23:32.115Z,18.85
2019-04-11T05:26:01.652Z,18.92
2019-04-11T05:28:30.258Z,18.85
2019-04-11T05:30:58.992Z,18.92
2019-04-11T05:33:27.697Z,19.07
2019-04-11T05:35:56.507Z,19.17
2019-04-11T05:38:25.368Z,18.62
2019-04-11T05:40:54.578Z,19.05
2019-04-11T05:43:28.076Z,20.10
2019-04-11T05:45:55.239Z,20.25
2019-04-11T05:48:31.148Z,20.75
2019-04-11T05:51:00.510Z,20.02
2019-04-11T05:53:32.719Z,19.05
2019-04-11T05:56:01.592Z,20.75
2019-04-11T05:58:32.479Z,20.23
2019-04-11T06:01:14.706Z,20.90
2019-04-11T06:03:45.367Z,19.92
2019-04-11T06:06:16.350Z,22.07
2019-04-11T06:08:46.117Z,20.90
2019-04-11T06:11:28.775Z,19.70
2019-04-11T06:14:03.836Z,20.17
2019-04-11T06:16:39.572Z,20.27
2019-04-11T06:19:04.035Z,20.17
2019-04-11T06:21:44.269Z,19.77
2019-04-11T06:24:32.127Z,21.68
2019-04-11T06:27:09.253Z,20.12
2019-04-11T06:29:40.993Z,20.05
2019-04-11T06:32:29.933Z,21.15
2019-04-11T06:35:03.956Z,19.95
2019-04-11T06:37:41.336Z,20.57
2019-04-11T06:40:11.800Z,20.27
2019-04-11T06:42:56.923Z,19.42
2019-04-11T06:48:09.406Z,18.67
2019-04-11T06:50:43.772Z,19.40
2019-04-11T06:53:13.173Z,19.60
2019-04-11T06:56:00.590Z,19.10
2019-04-11T06:58:31.822Z,20.37
2019-04-11T07:01:02.038Z,19.45
2019-04-11T07:03:36.262Z,19.02
2019-04-11T07:06:07.003Z,19.42
2019-04-11T07:08:54.630Z,18.82
2019-04-11T07:11:25.545Z,19.35
2019-04-11T07:14:01.981Z,19.10
2019-04-11T07:16:31.817Z,19.75
2019-04-11T07:19:17.684Z,19.45
2019-04-11T07:21:46.217Z,18.15
2019-04-11T07:24:32.319Z,18.85
2019-04-11T07:27:03.115Z,18.65
2019-04-11T07:29:36.469Z,19.10
2019-04-11T07:32:09.562Z,18.95
2019-04-11T07:34:56.576Z,19.00
2019-04-11T07:37:32.621Z,18.90
2019-04-11T07:40:13.108Z,18.17
2019-04-11T07:42:43.681Z,18.85
2019-04-11T07:45:26.407Z,19.07
2019-04-11T07:48:02.795Z,18.35
2019-04-11T07:50:31.349Z,19.55
2019-04-11T07:53:08.562Z,18.87
2019-04-11T07:55:38.860Z,19.73
2019-04-11T07:58:13.040Z,18.82
2019-04-11T08:00:59.581Z,18.35
2019-04-11T08:03:46.963Z,19.40
2019-04-11T08:06:33.300Z,18.70
2019-04-11T08:09:13.172Z,20.00
2019-04-11T08:11:44.254Z,18.65
2019-04-11T08:14:24.506Z,18.42
2019-04-11T08:16:57.802Z,19.00
2019-04-11T08:19:31.105Z,19.02
2019-04-11T08:22:02.941Z,18.57
2019-04-11T08:24:50.988Z,19.40
2019-04-11T08:27:31.659Z,18.65
2019-04-11T08:30:05.013Z,18.35
2019-04-11T08:32:38.277Z,18.98
2019-04-11T08:35:26.284Z,19.27
2019-04-11T08:37:56.510Z,18.02
2019-04-11T08:40:33.646Z,18.37
2019-04-11T08:43:04.679Z,19.25
2019-04-11T08:45:34.926Z,18.75
2019-04-11T08:48:08.826Z,18.65
2019-04-11T08:50:51.182Z,18.70
2019-04-11T08:53:21.616Z,18.52
2019-04-11T08:56:02.259Z,18.73
2019-04-11T08:58:49.038Z,19.35
2019-04-11T09:01:25.006Z,19.55
2019-04-11T09:04:08.765Z,19.67
2019-04-11T09:06:36.831Z,19.82
2019-04-11T09:09:23.619Z,19.95
2019-04-11T09:11:56.095Z,20.08
2019-04-11T09:14:36.032Z,19.15
2019-04-11T09:17:15.007Z,18.73
2019-04-11T09:19:47.869Z,20.32
2019-04-11T09:22:33.277Z,20.12
2019-04-11T09:25:09.352Z,19.48
2019-04-11T09:27:47.108Z,18.90
2019-04-11T09:30:33.705Z,21.20
2019-04-11T09:33:04.725Z,20.30
2019-04-11T09:35:44.008Z,20.75
2019-04-11T09:38:20.256Z,20.75
2019-04-11T09:41:08.020Z,19.65
2019-04-11T09:43:38.635Z,20.23
2019-04-11T09:46:12.379Z,19.62
2019-04-11T09:48:51.494Z,20.12
2019-04-11T09:51:40.296Z,20.75
2019-04-11T09:54:11.964Z,20.25
2019-04-11T09:57:00.131Z,20.43
2019-04-11T09:59:33.453Z,21.23
2019-04-11T10:02:16.776Z,21.30
2019-04-11T10:04:48.071Z,20.90
2019-04-11T10:07:28.095Z,20.12
2019-04-11T10:10:04.685Z,20.92
2019-04-11T10:12:42.424Z,21.27
2019-04-11T10:15:13.553Z,21.17
2019-04-11T10:17:50.503Z,22.05
2019-04-11T10:20:21.692Z,22.52
2019-04-11T10:23:08.237Z,22.40
2019-04-11T10:25:39.341Z,22.37
2019-04-11T10:28:29.334Z,21.45
2019-04-11T10:31:02.542Z,21.90
2019-04-11T10:33:49.112Z,22.58
2019-04-11T10:36:29.351Z,21.48
2019-04-11T10:39:00.545Z,22.27
2019-04-11T10:41:31.025Z,23.12
2019-04-11T10:43:59.502Z,21.70
2019-04-11T10:46:41.757Z,23.15
2019-04-11T10:49:17.882Z,22.05
2019-04-11T10:51:53.949Z,22.80
2019-04-11T10:54:23.869Z,23.02
2019-04-11T10:56:54.308Z,22.98
2019-04-11T10:59:26.564Z,23.65
2019-04-11T11:02:06.521Z,22.62
2019-04-11T11:04:37.068Z,22.93
2019-04-11T11:07:08.536Z,22.07
2019-04-11T11:10:03.729Z,23.20
2019-04-11T11:12:37.128Z,23.40
2019-04-11T11:15:09.445Z,24.35
2019-04-11T11:18:20.667Z,23.42
2019-04-11T11:20:43.001Z,23.30
2019-04-11T11:23:26.785Z,25.23
2019-04-11T11:26:07.011Z,23.83
2019-04-11T11:28:37.305Z,25.20
2019-04-11T11:31:07.852Z,24.82
2019-04-11T11:33:37.073Z,23.38
2019-04-11T11:36:13.147Z,24.82
2019-04-11T11:38:43.999Z,25.00
2019-04-11T11:41:20.685Z,24.47
2019-04-11T11:43:51.673Z,25.20
2019-04-11T11:46:38.350Z,24.43
2019-04-11T11:49:08.004Z,25.55
2019-04-11T11:51:38.405Z,24.95
2019-04-11T11:54:11.697Z,26.05
2019-04-11T11:56:42.477Z,26.12
2019-04-11T11:59:32.205Z,26.55
2019-04-11T12:02:02.478Z,26.55
2019-04-11T12:04:44.843Z,26.12
2019-04-11T12:07:18.932Z,29.42
2019-04-11T12:10:06.818Z,26.87
2019-04-11T12:12:38.024Z,27.65
2019-04-11T12:15:17.224Z,27.17
2019-04-11T12:18:06.718Z,27.60
2019-04-11T12:20:44.491Z,27.95
2019-04-11T12:23:13.023Z,28.45
2019-04-11T12:25:43.167Z,27.20
2019-04-11T12:28:17.411Z,30.08
2019-04-11T12:30:48.151Z,27.93
2019-04-11T12:33:30.956Z,28.85
2019-04-11T12:36:03.754Z,29.52
2019-04-11T12:38:34.106Z,28.90
2019-04-11T12:41:06.629Z,30.85
2019-04-11T12:43:36.993Z,27.45
2019-04-11T12:46:29.713Z,28.45
2019-04-11T12:48:55.454Z,28.15
2019-04-11T12:51:34.267Z,28.65
2019-04-11T12:54:03.147Z,30.70
2019-04-11T12:56:42.490Z,29.18
2019-04-11T12:59:10.984Z,30.55
2019-04-11T13:01:46.846Z,31.07
2019-04-11T13:04:16.963Z,32.63
2019-04-11T13:07:03.638Z,28.80
2019-04-11T13:09:39.475Z,30.00
2019-04-11T13:12:12.324Z,29.00
2019-04-11T13:14:42.714Z,30.23
2019-04-11T13:17:22.230Z,30.85
2019-04-11T13:20:08.532Z,30.77
2019-04-11T13:22:39.503Z,29.77
2019-04-11T13:25:12.514Z,30.10
2019-04-11T13:27:48.057Z,30.45
2019-04-11T13:30:30.194Z,31.48
2019-04-11T13:32:58.747Z,30.68
2019-04-11T13:35:44.994Z,30.57
2019-04-11T13:38:15.369Z,29.50
2019-04-11T13:40:45.732Z,29.55
2019-04-11T13:43:28.769Z,30.40
2019-04-11T13:46:04.450Z,30.77
2019-04-11T13:48:50.588Z,30.60
2019-04-11T13:51:23.919Z,30.32
2019-04-11T13:54:11.045Z,30.52
2019-04-11T13:56:57.760Z,30.68
2019-04-11T13:59:36.936Z,31.15
2019-04-11T14:02:15.625Z,30.77
2019-04-11T14:04:49.069Z,30.55
2019-04-11T14:07:21.238Z,29.37
2019-04-11T14:09:51.292Z,29.98
2019-04-11T14:12:19.770Z,30.65
2019-04-11T14:14:51.782Z,30.55
2019-04-11T14:17:41.547Z,29.40
2019-04-11T14:20:13.857Z,29.10
2019-04-11T14:22:44.136Z,31.27
2019-04-11T14:25:23.577Z,31.40
2019-04-11T14:27:53.937Z,29.77
2019-04-11T14:30:39.278Z,30.00
2019-04-11T14:33:07.915Z,29.07
2019-04-11T14:35:37.993Z,32.00
2019-04-11T14:38:10.841Z,30.43
2019-04-11T14:41:01.484Z,31.17
2019-04-11T14:43:28.370Z,32.65
2019-04-11T14:46:00.412Z,31.87
2019-04-11T14:48:37.844Z,32.20
2019-04-11T14:51:11.141Z,33.02
2019-04-11T14:53:56.609Z,34.25
2019-04-11T14:56:29.776Z,32.60
2019-04-11T14:59:18.113Z,33.28
2019-04-11T15:01:48.470Z,32.83
2019-04-11T15:04:34.999Z,32.03
2019-04-11T15:07:05.199Z,32.55
2019-04-11T15:09:51.163Z,32.85
2019-04-11T15:12:27.272Z,30.70
2019-04-11T15:15:13.896Z,32.13
2019-04-11T15:17:43.846Z,32.90
2019-04-11T15:20:18.084Z,32.50
2019-04-11T15:22:48.210Z,33.65
2019-04-11T15:25:18.565Z,35.08
2019-04-11T15:28:04.809Z,33.15
2019-04-11T15:30:50.119Z,33.58
2019-04-11T15:33:23.168Z,35.05
2019-04-11T15:35:58.046Z,34.95
2019-04-11T15:38:44.508Z,33.20
2019-04-11T15:41:13.877Z,35.98
2019-04-11T15:43:49.858Z,37.30
2019-04-11T15:46:25.958Z,33.75
2019-04-11T15:49:20.442Z,33.00
2019-04-11T15:51:44.223Z,34.25
2019-04-11T15:54:14.656Z,34.40
2019-04-11T15:56:45.558Z,33.95
2019-04-11T15:59:15.642Z,33.40
2019-04-11T16:01:51.958Z,34.25
2019-04-11T16:04:31.313Z,34.23
2019-04-11T16:07:14.681Z,34.73
2019-04-11T16:09:44.873Z,35.65
2019-04-11T16:12:17.984Z,33.95
2019-04-11T16:15:05.996Z,34.45
2019-04-11T16:17:36.119Z,34.48
2019-04-11T16:20:07.917Z,36.25
2019-04-11T16:22:55.926Z,35.50
2019-04-11T16:25:28.927Z,35.80
2019-04-11T16:28:06.570Z,34.25
2019-04-11T16:30:34.450Z,32.98
2019-04-11T16:33:07.557Z,33.98
2019-04-11T16:35:56.914Z,32.78
2019-04-11T16:38:26.614Z,34.43
2019-04-11T16:41:13.126Z,33.90
2019-04-11T16:43:43.240Z,33.55
2019-04-11T16:46:25.387Z,32.80
2019-04-11T16:48:55.906Z,33.67
2019-04-11T16:51:30.664Z,32.35
2019-04-11T16:53:54.861Z,32.38
2019-04-11T16:56:23.321Z,32.13
2019-04-11T16:58:52.040Z,31.35
2019-04-11T17:01:20.694Z,31.57
2019-04-11T17:03:54.865Z,33.75
2019-04-11T17:06:23.780Z,34.73
2019-04-11T17:08:56.315Z,36.80
2019-04-11T17:11:26.871Z,35.75
2019-04-11T17:13:57.448Z,37.83
2019-04-11T17:16:25.389Z,35.50
2019-04-11T17:18:53.839Z,36.05
2019-04-11T17:21:23.336Z,35.48
2019-04-11T17:23:51.930Z,35.95
2019-04-11T17:26:22.911Z,34.75
2019-04-11T17:28:53.545Z,35.83
2019-04-11T17:31:21.032Z,36.95
2019-04-11T17:33:49.618Z,35.80
2019-04-11T17:36:18.510Z,36.00
2019-04-11T17:38:46.980Z,36.80
2019-04-11T17:41:16.125Z,35.80
2019-04-11T17:43:46.778Z,34.55
2019-04-11T17:46:14.786Z,36.75
2019-04-11T17:48:43.266Z,35.00
2019-04-11T17:51:11.738Z,36.25
2019-04-11T17:53:40.205Z,37.05
2019-04-11T17:56:08.648Z,34.95
2019-04-11T17:58:37.108Z,35.17
2019-04-11T18:01:07.344Z,35.17
2019-04-11T18:03:35.907Z,36.13
2019-04-11T18:06:04.746Z,36.05
2019-04-11T18:08:33.188Z,35.23
2019-04-11T18:11:01.946Z,35.68
2019-04-11T18:13:31.548Z,35.33
2019-04-11T18:16:01.245Z,34.30
2019-04-11T18:18:34.888Z,34.13
2019-04-11T18:21:01.307Z,33.83
2019-04-11T18:23:29.768Z,32.83
2019-04-11T18:25:58.237Z,31.30
2019-04-11T18:28:26.958Z,31.85
2019-04-11T18:30:55.429Z,30.75
2019-04-11T18:33:23.955Z,31.07
2019-04-11T18:35:52.425Z,29.95
2019-04-11T18:38:20.874Z,30.40
2019-04-11T18:40:49.617Z,30.80
2019-04-11T18:43:18.108Z,30.82
2019-04-11T18:45:46.593Z,31.15
2019-04-11T18:48:15.037Z,31.42
2019-04-11T18:50:43.822Z,31.12
2019-04-11T18:53:12.293Z,31.50
2019-04-11T18:55:40.801Z,30.48
2019-04-11T18:58:09.648Z,30.75
2019-04-11T19:00:38.934Z,32.23
2019-04-11T19:03:08.017Z,31.70
2019-04-11T19:05:38.278Z,29.87
2019-04-11T19:08:07.011Z,31.45
2019-04-11T19:10:35.464Z,30.08
2019-04-11T19:13:04.444Z,31.95
2019-04-11T19:15:32.899Z,30.12
2019-04-11T19:18:06.738Z,31.52
2019-04-11T19:20:32.061Z,31.07
2019-04-11T19:23:00.599Z,30.57
2019-04-11T19:25:31.496Z,30.35
2019-04-11T19:27:59.466Z,31.37
2019-04-11T19:30:28.188Z,31.17
2019-04-11T19:32:56.644Z,30.02
2019-04-11T19:35:25.215Z,30.17
2019-04-11T19:37:53.729Z,30.05
2019-04-11T19:40:22.211Z,32.35
2019-04-11T19:42:50.659Z,30.62
2019-04-11T19:45:20.213Z,31.23
2019-04-11T19:47:51.724Z,32.05
2019-04-11T19:50:19.154Z,31.75
2019-04-11T19:52:47.605Z,31.12
2019-04-11T19:55:34.673Z,33.45
2019-04-11T19:58:03.488Z,35.17
2019-04-11T20:00:32.288Z,33.92
2019-04-11T20:03:00.743Z,33.38
2019-04-11T20:05:29.288Z,32.70
2019-04-11T20:07:57.729Z,32.73
2019-04-11T20:10:26.203Z,32.20
2019-04-11T20:12:54.667Z,32.30
2019-04-11T20:15:23.163Z,31.73
2019-04-11T20:17:52.211Z,31.33
2019-04-11T20:20:20.751Z,30.50
2019-04-11T20:22:58.809Z,32.78
2019-04-11T20:25:19.709Z,32.33
2019-04-11T20:27:50.765Z,31.77
2019-04-11T20:30:18.327Z,33.42
2019-04-11T20:32:46.797Z,32.10
2019-04-11T20:35:15.237Z,32.67
2019-04-11T20:37:44.726Z,31.55
2019-04-11T20:40:17.220Z,31.75
2019-04-11T20:42:44.307Z,31.50
2019-04-11T20:45:12.811Z,30.27
2019-04-11T20:47:41.273Z,31.23
2019-04-11T20:50:09.799Z,30.32
2019-04-11T20:52:38.274Z,30.62
2019-04-11T20:55:09.181Z,30.45
2019-04-11T20:57:37.418Z,29.45
2019-04-11T21:00:12.057Z,30.02
2019-04-11T21:02:38.512Z,31.23
2019-04-11T21:05:07.041Z,30.85
2019-04-11T21:07:35.769Z,31.07
2019-04-11T21:10:06.480Z,30.88
2019-04-11T21:12:37.082Z,30.43
2019-04-11T21:15:07.259Z,29.60
2019-04-11T21:17:35.788Z,30.17
2019-04-11T21:20:06.645Z,30.60
2019-04-11T21:22:35.125Z,30.40
2019-04-11T21:25:04.130Z,29.60
2019-04-11T21:27:32.887Z,29.87
2019-04-11T21:30:01.410Z,30.57
2019-04-11T21:32:31.925Z,29.63
2019-04-11T21:35:02.378Z,30.23
2019-04-11T21:37:30.950Z,31.27
2019-04-11T21:39:59.429Z,29.95
2019-04-11T21:42:28.158Z,29.32
2019-04-11T21:44:56.622Z,28.87
2019-04-11T21:47:25.069Z,30.52
2019-04-11T21:49:53.534Z,30.15
2019-04-11T21:52:21.983Z,29.95
2019-04-11T21:54:50.475Z,29.18
2019-04-11T21:57:19.274Z,30.35
2019-04-11T21:59:51.236Z,30.27
2019-04-11T22:02:18.436Z,29.52
2019-04-11T22:04:46.951Z,30.68
2019-04-11T22:07:15.659Z,30.20
2019-04-11T22:09:44.407Z,30.88
2019-04-11T22:12:12.860Z,29.37
2019-04-11T22:14:42.541Z,29.72
2019-04-11T22:17:14.896Z,30.23
2019-04-11T22:19:45.481Z,28.70
2019-04-11T22:22:11.510Z,31.02
2019-04-11T22:24:40.232Z,30.17
2019-04-11T22:27:08.949Z,29.92
2019-04-11T22:29:37.403Z,30.25
2019-04-11T22:32:06.126Z,31.68
2019-04-11T22:34:45.601Z,31.68
2019-04-11T22:37:14.162Z,30.70
2019-04-11T22:39:42.617Z,30.62
2019-04-11T22:42:11.219Z,30.45
2019-04-11T22:44:39.667Z,30.85
2019-04-11T22:47:08.693Z,30.30
2019-04-11T22:49:39.299Z,29.42
2019-04-11T22:52:07.927Z,29.42
2019-04-11T22:54:36.379Z,28.83
2019-04-11T22:57:04.904Z,30.35
2019-04-11T22:59:34.638Z,28.98
2019-04-11T23:02:07.920Z,28.20
2019-04-11T23:04:36.646Z,28.87
2019-04-11T23:07:05.137Z,28.67
2019-04-11T23:09:33.633Z,28.07
2019-04-11T23:12:02.333Z,27.90
2019-04-11T23:14:31.874Z,28.73
2019-04-11T23:17:00.579Z,29.00
2019-04-11T23:19:29.039Z,27.90
2019-04-11T23:21:57.496Z,27.95
2019-04-11T23:24:26.222Z,28.87
2019-04-11T23:26:54.946Z,27.27
2019-04-11T23:29:23.421Z,28.87
2019-04-11T23:31:51.873Z,28.20
2019-04-11T23:34:22.096Z,27.05
2019-04-11T23:36:51.217Z,28.42
2019-04-11T23:39:22.706Z,28.55
2019-04-11T23:41:50.476Z,26.97
2019-04-11T23:44:20.371Z,26.55
2019-04-11T23:46:51.741Z,27.52
2019-04-11T23:49:19.604Z,26.90
2019-04-11T23:51:51.133Z,26.45
2019-04-11T23:54:23.221Z,26.82
2019-04-11T23:56:50.301Z,25.50
2019-04-11T23:59:19.013Z,26.45
